sensor_id;sensor_type;location;lat;lon;timestamp;temperature;humidity
3842;DHT22;1936;47.074;15.336;2022-11-15T00:00:43;7.00;99.90
3842;DHT22;1936;47.074;15.336;2022-11-15T00:02:46;7.10;99.90
3842;DHT22;1936;47.074;15.336;2022-11-15T00:04:49;7.10;99.90
3842;DHT22;1936;47.074;15.336;2022-11-15T00:06:54;7.10;99.90
3842;DHT22;1936;47.074;15.336;2022-11-15T00:08:58;7.20;99.90
3842;DHT22;1936;47.074;15.336;2022-11-15T00:11:02;7.20;99.90
3842;DHT22;1936;47.074;15.336;2022-11-15T00:13:06;7.20;99.90
3842;DHT22;1936;47.074;15.336;2022-11-15T00:15:09;7.30;99.90
3842;DHT22;1936;47.074;15.336;2022-11-15T00:17:13;7.30;99.90
3842;DHT22;1936;47.074;15.336;2022-11-15T00:19:16;7.30;99.90
3842;DHT22;1936;47.074;15.336;2022-11-15T00:21:19;7.30;99.90
3842;DHT22;1936;47.074;15.336;2022-11-15T00:23:24;7.30;99.90
3842;DHT22;1936;47.074;15.336;2022-11-15T00:25:27;7.30;99.90
3842;DHT22;1936;47.074;15.336;2022-11-15T00:27:30;7.30;99.90
3842;DHT22;1936;47.074;15.336;2022-11-15T00:29:34;7.30;99.90
3842;DHT22;1936;47.074;15.336;2022-11-15T00:31:39;7.40;99.90
3842;DHT22;1936;47.074;15.336;2022-11-15T00:33:43;7.40;99.90
3842;DHT22;1936;47.074;15.336;2022-11-15T00:35:47;7.40;99.90
3842;DHT22;1936;47.074;15.336;2022-11-15T00:37:52;7.40;99.90
3842;DHT22;1936;47.074;15.336;2022-11-15T00:39:57;7.50;99.90
3842;DHT22;1936;47.074;15.336;2022-11-15T00:42:00;7.50;99.90
3842;DHT22;1936;47.074;15.336;2022-11-15T00:44:03;7.50;99.90
3842;DHT22;1936;47.074;15.336;2022-11-15T00:46:07;7.50;99.90
3842;DHT22;1936;47.074;15.336;2022-11-15T00:48:11;7.50;99.90
3842;DHT22;1936;47.074;15.336;2022-11-15T00:50:15;7.50;99.90
3842;DHT22;1936;47.074;15.336;2022-11-15T00:52:19;7.50;99.90
3842;DHT22;1936;47.074;15.336;2022-11-15T00:54:22;7.50;99.90
3842;DHT22;1936;47.074;15.336;2022-11-15T00:56:27;7.50;99.90
3842;DHT22;1936;47.074;15.336;2022-11-15T00:58:30;7.50;99.90
3842;DHT22;1936;47.074;15.336;2022-11-15T01:00:33;7.50;99.90
3842;DHT22;1936;47.074;15.336;2022-11-15T01:02:36;7.40;99.90
3842;DHT22;1936;47.074;15.336;2022-11-15T01:04:40;7.50;99.90
3842;DHT22;1936;47.074;15.336;2022-11-15T01:06:43;7.50;99.90
3842;DHT22;1936;47.074;15.336;2022-11-15T01:08:46;7.40;99.90
3842;DHT22;1936;47.074;15.336;2022-11-15T01:10:50;7.40;99.90
3842;DHT22;1936;47.074;15.336;2022-11-15T01:12:54;7.50;99.90
3842;DHT22;1936;47.074;15.336;2022-11-15T01:14:57;7.50;99.90
3842;DHT22;1936;47.074;15.336;2022-11-15T01:17:01;7.40;99.90
3842;DHT22;1936;47.074;15.336;2022-11-15T01:19:04;7.50;99.90
3842;DHT22;1936;47.074;15.336;2022-11-15T01:21:10;7.50;99.90
3842;DHT22;1936;47.074;15.336;2022-11-15T01:23:14;7.50;99.90
3842;DHT22;1936;47.074;15.336;2022-11-15T01:25:17;7.50;99.90
3842;DHT22;1936;47.074;15.336;2022-11-15T01:27:20;7.50;99.90
3842;DHT22;1936;47.074;15.336;2022-11-15T01:29:25;7.50;99.90
3842;DHT22;1936;47.074;15.336;2022-11-15T01:31:28;7.60;99.90
3842;DHT22;1936;47.074;15.336;2022-11-15T01:33:34;7.50;99.90
3842;DHT22;1936;47.074;15.336;2022-11-15T01:35:38;7.40;99.90
3842;DHT22;1936;47.074;15.336;2022-11-15T01:37:42;7.40;99.90
3842;DHT22;1936;47.074;15.336;2022-11-15T01:39:46;7.40;99.90
3842;DHT22;1936;47.074;15.336;2022-11-15T01:41:49;7.50;99.90
3842;DHT22;1936;47.074;15.336;2022-11-15T01:43:54;7.50;99.90
3842;DHT22;1936;47.074;15.336;2022-11-15T01:46:06;7.60;99.90
3842;DHT22;1936;47.074;15.336;2022-11-15T01:48:17;7.50;99.90
3842;DHT22;1936;47.074;15.336;2022-11-15T01:50:23;7.50;99.90
3842;DHT22;1936;47.074;15.336;2022-11-15T01:52:30;7.50;99.90
3842;DHT22;1936;47.074;15.336;2022-11-15T01:54:34;7.50;99.90
3842;DHT22;1936;47.074;15.336;2022-11-15T01:56:40;7.50;99.90
3842;DHT22;1936;47.074;15.336;2022-11-15T01:58:45;7.60;99.90
3842;DHT22;1936;47.074;15.336;2022-11-15T02:00:49;7.50;99.90
3842;DHT22;1936;47.074;15.336;2022-11-15T02:02:54;7.50;99.90
3842;DHT22;1936;47.074;15.336;2022-11-15T02:04:58;7.60;99.90
3842;DHT22;1936;47.074;15.336;2022-11-15T02:07:03;7.50;99.90
3842;DHT22;1936;47.074;15.336;2022-11-15T02:09:07;7.50;99.90
3842;DHT22;1936;47.074;15.336;2022-11-15T02:11:10;7.50;99.90
3842;DHT22;1936;47.074;15.336;2022-11-15T02:13:14;7.50;99.90
3842;DHT22;1936;47.074;15.336;2022-11-15T02:15:18;7.50;99.90
3842;DHT22;1936;47.074;15.336;2022-11-15T02:17:44;7.50;99.90
3842;DHT22;1936;47.074;15.336;2022-11-15T02:22:35;7.50;99.90
3842;DHT22;1936;47.074;15.336;2022-11-15T02:25:02;7.60;99.90
3842;DHT22;1936;47.074;15.336;2022-11-15T02:27:54;7.60;99.90
3842;DHT22;1936;47.074;15.336;2022-11-15T02:30:04;7.60;99.90
3842;DHT22;1936;47.074;15.336;2022-11-15T02:32:17;7.60;99.90
3842;DHT22;1936;47.074;15.336;2022-11-15T02:34:28;7.60;99.90
3842;DHT22;1936;47.074;15.336;2022-11-15T02:36:38;7.50;99.90
3842;DHT22;1936;47.074;15.336;2022-11-15T02:38:47;7.50;99.90
3842;DHT22;1936;47.074;15.336;2022-11-15T02:41:00;7.50;99.90
3842;DHT22;1936;47.074;15.336;2022-11-15T02:43:09;7.40;99.90
3842;DHT22;1936;47.074;15.336;2022-11-15T02:45:35;7.40;99.90
3842;DHT22;1936;47.074;15.336;2022-11-15T02:47:43;7.40;99.90
3842;DHT22;1936;47.074;15.336;2022-11-15T02:49:48;7.40;99.90
3842;DHT22;1936;47.074;15.336;2022-11-15T02:51:52;7.40;99.90
3842;DHT22;1936;47.074;15.336;2022-11-15T02:53:57;7.40;99.90
3842;DHT22;1936;47.074;15.336;2022-11-15T02:56:01;7.40;99.90
3842;DHT22;1936;47.074;15.336;2022-11-15T03:00:46;7.40;99.90
3842;DHT22;1936;47.074;15.336;2022-11-15T03:05:42;7.40;99.90
3842;DHT22;1936;47.074;15.336;2022-11-15T03:07:52;7.30;99.90
3842;DHT22;1936;47.074;15.336;2022-11-15T03:10:06;7.30;99.90
3842;DHT22;1936;47.074;15.336;2022-11-15T03:12:16;7.30;99.90
3842;DHT22;1936;47.074;15.336;2022-11-15T03:14:27;7.30;99.90
3842;DHT22;1936;47.074;15.336;2022-11-15T03:16:35;7.30;99.90
3842;DHT22;1936;47.074;15.336;2022-11-15T03:18:45;7.30;99.90
3842;DHT22;1936;47.074;15.336;2022-11-15T03:20:50;7.30;99.90
3842;DHT22;1936;47.074;15.336;2022-11-15T03:22:55;7.30;99.90
3842;DHT22;1936;47.074;15.336;2022-11-15T03:25:04;7.20;99.90
3842;DHT22;1936;47.074;15.336;2022-11-15T03:27:09;7.10;99.90
3842;DHT22;1936;47.074;15.336;2022-11-15T03:29:19;7.10;99.90
3842;DHT22;1936;47.074;15.336;2022-11-15T03:31:28;7.20;99.90
3842;DHT22;1936;47.074;15.336;2022-11-15T03:33:55;7.20;99.90
3842;DHT22;1936;47.074;15.336;2022-11-15T03:36:00;7.20;99.90
3842;DHT22;1936;47.074;15.336;2022-11-15T03:38:08;7.10;99.90
3842;DHT22;1936;47.074;15.336;2022-11-15T03:40:16;7.10;99.90
3842;DHT22;1936;47.074;15.336;2022-11-15T03:42:24;7.10;99.90
3842;DHT22;1936;47.074;15.336;2022-11-15T03:44:37;7.10;99.90
3842;DHT22;1936;47.074;15.336;2022-11-15T03:46:46;7.10;99.90
3842;DHT22;1936;47.074;15.336;2022-11-15T03:48:56;7.20;99.90
3842;DHT22;1936;47.074;15.336;2022-11-15T03:51:02;7.20;99.90
3842;DHT22;1936;47.074;15.336;2022-11-15T03:53:06;7.10;99.90
3842;DHT22;1936;47.074;15.336;2022-11-15T03:55:12;7.20;99.90
3842;DHT22;1936;47.074;15.336;2022-11-15T03:57:16;7.10;99.90
3842;DHT22;1936;47.074;15.336;2022-11-15T03:59:19;7.10;99.90
3842;DHT22;1936;47.074;15.336;2022-11-15T04:01:22;7.10;99.90
3842;DHT22;1936;47.074;15.336;2022-11-15T04:03:26;7.10;99.90
3842;DHT22;1936;47.074;15.336;2022-11-15T04:05:30;7.00;99.90
3842;DHT22;1936;47.074;15.336;2022-11-15T04:07:33;7.00;99.90
3842;DHT22;1936;47.074;15.336;2022-11-15T04:09:37;7.10;99.90
3842;DHT22;1936;47.074;15.336;2022-11-15T04:12:00;7.00;99.90
3842;DHT22;1936;47.074;15.336;2022-11-15T04:14:03;7.00;99.90
3842;DHT22;1936;47.074;15.336;2022-11-15T04:16:06;6.90;99.90
3842;DHT22;1936;47.074;15.336;2022-11-15T04:18:09;6.90;99.90
3842;DHT22;1936;47.074;15.336;2022-11-15T04:20:17;6.90;99.90
3842;DHT22;1936;47.074;15.336;2022-11-15T04:22:39;7.00;99.90
3842;DHT22;1936;47.074;15.336;2022-11-15T04:25:03;7.10;99.90
3842;DHT22;1936;47.074;15.336;2022-11-15T04:27:06;7.00;99.90
3842;DHT22;1936;47.074;15.336;2022-11-15T04:29:09;7.00;99.90
3842;DHT22;1936;47.074;15.336;2022-11-15T04:31:30;7.00;99.90
3842;DHT22;1936;47.074;15.336;2022-11-15T04:33:33;7.10;99.90
3842;DHT22;1936;47.074;15.336;2022-11-15T04:35:36;7.00;99.90
3842;DHT22;1936;47.074;15.336;2022-11-15T04:37:41;7.00;99.90
3842;DHT22;1936;47.074;15.336;2022-11-15T04:39:50;7.00;99.90
3842;DHT22;1936;47.074;15.336;2022-11-15T04:41:53;7.10;99.90
3842;DHT22;1936;47.074;15.336;2022-11-15T04:43:56;7.00;99.90
3842;DHT22;1936;47.074;15.336;2022-11-15T04:45:59;7.00;99.90
3842;DHT22;1936;47.074;15.336;2022-11-15T04:48:02;7.00;99.90
3842;DHT22;1936;47.074;15.336;2022-11-15T04:50:06;7.10;99.90
3842;DHT22;1936;47.074;15.336;2022-11-15T04:52:10;7.10;99.90
3842;DHT22;1936;47.074;15.336;2022-11-15T04:54:14;7.10;99.90
3842;DHT22;1936;47.074;15.336;2022-11-15T04:56:18;7.00;99.90
3842;DHT22;1936;47.074;15.336;2022-11-15T04:58:22;7.00;99.90
3842;DHT22;1936;47.074;15.336;2022-11-15T05:00:25;7.00;99.90
3842;DHT22;1936;47.074;15.336;2022-11-15T05:02:28;7.00;99.90
3842;DHT22;1936;47.074;15.336;2022-11-15T05:04:52;7.00;99.90
3842;DHT22;1936;47.074;15.336;2022-11-15T05:06:54;7.00;99.90
3842;DHT22;1936;47.074;15.336;2022-11-15T05:08:58;7.00;99.90
3842;DHT22;1936;47.074;15.336;2022-11-15T05:11:02;7.10;99.90
3842;DHT22;1936;47.074;15.336;2022-11-15T05:13:05;7.00;99.90
3842;DHT22;1936;47.074;15.336;2022-11-15T05:15:09;7.00;99.90
3842;DHT22;1936;47.074;15.336;2022-11-15T05:17:12;7.10;99.90
3842;DHT22;1936;47.074;15.336;2022-11-15T05:19:16;7.10;99.90
3842;DHT22;1936;47.074;15.336;2022-11-15T05:21:20;7.10;99.90
3842;DHT22;1936;47.074;15.336;2022-11-15T05:23:23;7.10;99.90
3842;DHT22;1936;47.074;15.336;2022-11-15T05:25:27;7.00;99.90
3842;DHT22;1936;47.074;15.336;2022-11-15T05:27:32;7.00;99.90
3842;DHT22;1936;47.074;15.336;2022-11-15T05:29:35;7.00;99.90
3842;DHT22;1936;47.074;15.336;2022-11-15T05:31:40;7.00;99.90
3842;DHT22;1936;47.074;15.336;2022-11-15T05:33:44;7.10;99.90
3842;DHT22;1936;47.074;15.336;2022-11-15T05:35:54;7.00;99.90
3842;DHT22;1936;47.074;15.336;2022-11-15T05:37:58;7.10;99.90
3842;DHT22;1936;47.074;15.336;2022-11-15T05:40:01;7.00;99.90
3842;DHT22;1936;47.074;15.336;2022-11-15T05:42:07;7.10;99.90
3842;DHT22;1936;47.074;15.336;2022-11-15T05:44:17;7.00;99.90
3842;DHT22;1936;47.074;15.336;2022-11-15T05:46:21;7.00;99.90
3842;DHT22;1936;47.074;15.336;2022-11-15T05:48:25;7.00;99.90
3842;DHT22;1936;47.074;15.336;2022-11-15T05:50:29;7.10;99.90
3842;DHT22;1936;47.074;15.336;2022-11-15T05:52:34;7.00;99.90
3842;DHT22;1936;47.074;15.336;2022-11-15T05:54:40;7.00;99.90
3842;DHT22;1936;47.074;15.336;2022-11-15T05:56:43;7.00;99.90
3842;DHT22;1936;47.074;15.336;2022-11-15T05:58:46;7.00;99.90
3842;DHT22;1936;47.074;15.336;2022-11-15T06:00:52;7.00;99.90
3842;DHT22;1936;47.074;15.336;2022-11-15T06:02:55;7.00;99.90
3842;DHT22;1936;47.074;15.336;2022-11-15T06:04:58;7.10;99.90
3842;DHT22;1936;47.074;15.336;2022-11-15T06:07:02;7.10;99.90
3842;DHT22;1936;47.074;15.336;2022-11-15T06:09:05;7.10;99.90
3842;DHT22;1936;47.074;15.336;2022-11-15T06:11:08;7.10;99.90
3842;DHT22;1936;47.074;15.336;2022-11-15T06:13:12;7.10;99.90
3842;DHT22;1936;47.074;15.336;2022-11-15T06:15:15;7.10;99.90
3842;DHT22;1936;47.074;15.336;2022-11-15T06:17:20;7.00;99.90
3842;DHT22;1936;47.074;15.336;2022-11-15T06:19:24;7.10;99.90
3842;DHT22;1936;47.074;15.336;2022-11-15T06:21:27;7.00;99.90
3842;DHT22;1936;47.074;15.336;2022-11-15T06:23:32;7.10;99.90
3842;DHT22;1936;47.074;15.336;2022-11-15T06:25:36;7.10;99.90
3842;DHT22;1936;47.074;15.336;2022-11-15T06:27:39;7.10;99.90
3842;DHT22;1936;47.074;15.336;2022-11-15T06:29:42;7.20;99.90
3842;DHT22;1936;47.074;15.336;2022-11-15T06:31:45;7.20;99.90
3842;DHT22;1936;47.074;15.336;2022-11-15T06:33:50;7.20;99.90
3842;DHT22;1936;47.074;15.336;2022-11-15T06:35:53;7.20;99.90
3842;DHT22;1936;47.074;15.336;2022-11-15T06:38:02;7.20;99.90
3842;DHT22;1936;47.074;15.336;2022-11-15T06:40:06;7.20;99.90
3842;DHT22;1936;47.074;15.336;2022-11-15T06:42:10;7.20;99.90
3842;DHT22;1936;47.074;15.336;2022-11-15T06:44:13;7.30;99.90
3842;DHT22;1936;47.074;15.336;2022-11-15T06:46:16;7.30;99.90
3842;DHT22;1936;47.074;15.336;2022-11-15T06:48:20;7.30;99.90
3842;DHT22;1936;47.074;15.336;2022-11-15T06:50:24;7.30;99.90
3842;DHT22;1936;47.074;15.336;2022-11-15T06:52:28;7.40;99.90
3842;DHT22;1936;47.074;15.336;2022-11-15T06:54:34;7.40;99.90
3842;DHT22;1936;47.074;15.336;2022-11-15T06:56:37;7.30;99.90
3842;DHT22;1936;47.074;15.336;2022-11-15T06:58:40;7.30;99.90
3842;DHT22;1936;47.074;15.336;2022-11-15T07:00:44;7.40;99.90
3842;DHT22;1936;47.074;15.336;2022-11-15T07:02:47;7.40;99.90
3842;DHT22;1936;47.074;15.336;2022-11-15T07:04:51;7.30;99.90
3842;DHT22;1936;47.074;15.336;2022-11-15T07:06:55;7.40;99.90
3842;DHT22;1936;47.074;15.336;2022-11-15T07:08:59;7.40;99.90
3842;DHT22;1936;47.074;15.336;2022-11-15T07:11:04;7.50;99.90
3842;DHT22;1936;47.074;15.336;2022-11-15T07:13:08;7.40;99.90
3842;DHT22;1936;47.074;15.336;2022-11-15T07:15:11;7.40;99.90
3842;DHT22;1936;47.074;15.336;2022-11-15T07:17:14;7.50;99.90
3842;DHT22;1936;47.074;15.336;2022-11-15T07:19:18;7.60;99.90
3842;DHT22;1936;47.074;15.336;2022-11-15T07:21:21;7.60;99.90
3842;DHT22;1936;47.074;15.336;2022-11-15T07:23:30;7.60;99.90
3842;DHT22;1936;47.074;15.336;2022-11-15T07:25:34;7.70;99.90
3842;DHT22;1936;47.074;15.336;2022-11-15T07:27:37;7.80;99.90
3842;DHT22;1936;47.074;15.336;2022-11-15T07:29:41;7.80;99.90
3842;DHT22;1936;47.074;15.336;2022-11-15T07:31:44;7.80;99.90
3842;DHT22;1936;47.074;15.336;2022-11-15T07:33:47;7.80;99.90
3842;DHT22;1936;47.074;15.336;2022-11-15T07:35:50;7.80;99.90
3842;DHT22;1936;47.074;15.336;2022-11-15T07:37:55;7.70;99.90
3842;DHT22;1936;47.074;15.336;2022-11-15T07:40:00;7.80;99.90
3842;DHT22;1936;47.074;15.336;2022-11-15T07:42:03;7.80;99.90
3842;DHT22;1936;47.074;15.336;2022-11-15T07:44:25;7.70;99.90
3842;DHT22;1936;47.074;15.336;2022-11-15T07:46:29;7.80;99.90
3842;DHT22;1936;47.074;15.336;2022-11-15T07:48:32;7.90;99.90
3842;DHT22;1936;47.074;15.336;2022-11-15T07:50:45;7.90;99.90
3842;DHT22;1936;47.074;15.336;2022-11-15T07:52:53;8.00;99.90
3842;DHT22;1936;47.074;15.336;2022-11-15T07:54:57;8.10;99.90
3842;DHT22;1936;47.074;15.336;2022-11-15T07:57:01;8.10;99.90
3842;DHT22;1936;47.074;15.336;2022-11-15T07:59:08;8.10;99.90
3842;DHT22;1936;47.074;15.336;2022-11-15T08:01:11;8.10;99.90
3842;DHT22;1936;47.074;15.336;2022-11-15T08:03:16;8.20;99.90
3842;DHT22;1936;47.074;15.336;2022-11-15T08:05:20;8.40;99.90
3842;DHT22;1936;47.074;15.336;2022-11-15T08:07:23;8.50;99.90
3842;DHT22;1936;47.074;15.336;2022-11-15T08:09:26;8.40;99.90
3842;DHT22;1936;47.074;15.336;2022-11-15T08:11:30;8.50;99.90
3842;DHT22;1936;47.074;15.336;2022-11-15T08:13:34;8.60;99.90
3842;DHT22;1936;47.074;15.336;2022-11-15T08:15:38;8.60;99.90
3842;DHT22;1936;47.074;15.336;2022-11-15T08:17:42;8.40;99.90
3842;DHT22;1936;47.074;15.336;2022-11-15T08:19:45;8.40;99.90
3842;DHT22;1936;47.074;15.336;2022-11-15T08:21:48;8.40;99.90
3842;DHT22;1936;47.074;15.336;2022-11-15T08:23:51;8.40;99.90
3842;DHT22;1936;47.074;15.336;2022-11-15T08:25:59;8.40;99.90
3842;DHT22;1936;47.074;15.336;2022-11-15T08:28:05;8.40;99.90
3842;DHT22;1936;47.074;15.336;2022-11-15T08:30:11;8.40;99.90
3842;DHT22;1936;47.074;15.336;2022-11-15T08:32:15;8.50;99.90
3842;DHT22;1936;47.074;15.336;2022-11-15T08:34:19;8.50;99.90
3842;DHT22;1936;47.074;15.336;2022-11-15T08:36:23;8.50;99.90
3842;DHT22;1936;47.074;15.336;2022-11-15T08:38:26;8.60;99.90
3842;DHT22;1936;47.074;15.336;2022-11-15T08:40:32;8.70;99.90
3842;DHT22;1936;47.074;15.336;2022-11-15T08:42:36;8.70;99.90
3842;DHT22;1936;47.074;15.336;2022-11-15T08:44:40;8.70;99.90
3842;DHT22;1936;47.074;15.336;2022-11-15T08:46:46;8.70;99.90
3842;DHT22;1936;47.074;15.336;2022-11-15T08:48:50;8.70;99.90
3842;DHT22;1936;47.074;15.336;2022-11-15T08:50:54;8.70;99.90
3842;DHT22;1936;47.074;15.336;2022-11-15T08:53:02;8.80;99.90
3842;DHT22;1936;47.074;15.336;2022-11-15T08:55:07;8.80;99.90
3842;DHT22;1936;47.074;15.336;2022-11-15T08:57:10;8.80;99.90
3842;DHT22;1936;47.074;15.336;2022-11-15T08:59:14;8.90;99.90
3842;DHT22;1936;47.074;15.336;2022-11-15T09:01:19;8.80;99.90
3842;DHT22;1936;47.074;15.336;2022-11-15T09:03:25;8.80;99.90
3842;DHT22;1936;47.074;15.336;2022-11-15T09:05:31;8.90;99.90
3842;DHT22;1936;47.074;15.336;2022-11-15T09:07:34;9.00;99.90
3842;DHT22;1936;47.074;15.336;2022-11-15T09:09:38;9.10;99.90
3842;DHT22;1936;47.074;15.336;2022-11-15T09:11:41;9.20;99.90
3842;DHT22;1936;47.074;15.336;2022-11-15T09:13:45;9.10;99.90
3842;DHT22;1936;47.074;15.336;2022-11-15T09:15:48;9.00;99.90
3842;DHT22;1936;47.074;15.336;2022-11-15T09:17:52;9.20;99.90
3842;DHT22;1936;47.074;15.336;2022-11-15T09:19:56;9.30;99.90
3842;DHT22;1936;47.074;15.336;2022-11-15T09:22:05;9.40;99.90
3842;DHT22;1936;47.074;15.336;2022-11-15T09:24:09;9.10;99.90
3842;DHT22;1936;47.074;15.336;2022-11-15T09:26:13;9.30;99.90
3842;DHT22;1936;47.074;15.336;2022-11-15T09:28:16;9.30;99.90
3842;DHT22;1936;47.074;15.336;2022-11-15T09:30:19;9.30;99.90
3842;DHT22;1936;47.074;15.336;2022-11-15T09:32:23;9.30;99.90
3842;DHT22;1936;47.074;15.336;2022-11-15T09:34:26;9.40;99.90
3842;DHT22;1936;47.074;15.336;2022-11-15T09:36:30;9.50;99.90
3842;DHT22;1936;47.074;15.336;2022-11-15T09:38:34;9.50;99.90
3842;DHT22;1936;47.074;15.336;2022-11-15T09:40:38;9.50;99.90
3842;DHT22;1936;47.074;15.336;2022-11-15T09:42:58;9.40;99.90
3842;DHT22;1936;47.074;15.336;2022-11-15T09:45:12;9.40;99.90
3842;DHT22;1936;47.074;15.336;2022-11-15T09:49:58;9.40;99.90
3842;DHT22;1936;47.074;15.336;2022-11-15T09:52:04;9.40;99.90
3842;DHT22;1936;47.074;15.336;2022-11-15T09:54:13;9.50;99.90
3842;DHT22;1936;47.074;15.336;2022-11-15T09:56:41;9.70;99.90
3842;DHT22;1936;47.074;15.336;2022-11-15T09:58:52;9.80;99.90
3842;DHT22;1936;47.074;15.336;2022-11-15T10:00:58;9.90;99.90
3842;DHT22;1936;47.074;15.336;2022-11-15T10:03:09;9.80;99.90
3842;DHT22;1936;47.074;15.336;2022-11-15T10:05:16;10.10;99.90
3842;DHT22;1936;47.074;15.336;2022-11-15T10:07:27;10.00;99.90
3842;DHT22;1936;47.074;15.336;2022-11-15T10:09:36;10.10;99.90
3842;DHT22;1936;47.074;15.336;2022-11-15T10:11:41;10.20;99.90
3842;DHT22;1936;47.074;15.336;2022-11-15T10:13:46;10.30;99.90
3842;DHT22;1936;47.074;15.336;2022-11-15T10:15:53;10.40;99.90
3842;DHT22;1936;47.074;15.336;2022-11-15T10:18:14;10.80;99.90
3842;DHT22;1936;47.074;15.336;2022-11-15T10:20:21;10.90;99.90
3842;DHT22;1936;47.074;15.336;2022-11-15T10:22:28;10.70;99.90
3842;DHT22;1936;47.074;15.336;2022-11-15T10:24:36;10.90;99.90
3842;DHT22;1936;47.074;15.336;2022-11-15T10:26:46;10.90;99.90
3842;DHT22;1936;47.074;15.336;2022-11-15T10:28:49;11.00;99.90
3842;DHT22;1936;47.074;15.336;2022-11-15T10:30:54;10.90;99.90
3842;DHT22;1936;47.074;15.336;2022-11-15T10:32:58;10.80;99.90
3842;DHT22;1936;47.074;15.336;2022-11-15T10:35:17;11.10;99.90
3842;DHT22;1936;47.074;15.336;2022-11-15T10:37:29;11.30;99.90
3842;DHT22;1936;47.074;15.336;2022-11-15T10:39:33;11.80;99.90
3842;DHT22;1936;47.074;15.336;2022-11-15T10:41:38;11.90;99.90
3842;DHT22;1936;47.074;15.336;2022-11-15T10:43:42;11.90;99.90
3842;DHT22;1936;47.074;15.336;2022-11-15T10:45:46;11.80;99.90
3842;DHT22;1936;47.074;15.336;2022-11-15T10:47:50;11.70;99.90
3842;DHT22;1936;47.074;15.336;2022-11-15T10:49:56;11.80;99.90
3842;DHT22;1936;47.074;15.336;2022-11-15T10:52:02;11.80;99.90
3842;DHT22;1936;47.074;15.336;2022-11-15T10:54:10;11.80;99.90
3842;DHT22;1936;47.074;15.336;2022-11-15T10:56:22;11.50;99.90
3842;DHT22;1936;47.074;15.336;2022-11-15T10:58:35;11.30;99.90
3842;DHT22;1936;47.074;15.336;2022-11-15T11:00:40;11.40;99.90
3842;DHT22;1936;47.074;15.336;2022-11-15T11:02:57;11.40;99.90
3842;DHT22;1936;47.074;15.336;2022-11-15T11:05:02;11.40;99.90
3842;DHT22;1936;47.074;15.336;2022-11-15T11:07:20;11.10;99.90
3842;DHT22;1936;47.074;15.336;2022-11-15T11:09:32;11.10;99.90
3842;DHT22;1936;47.074;15.336;2022-11-15T11:11:44;11.10;99.90
3842;DHT22;1936;47.074;15.336;2022-11-15T11:13:48;11.10;99.90
3842;DHT22;1936;47.074;15.336;2022-11-15T11:15:55;11.10;99.90
3842;DHT22;1936;47.074;15.336;2022-11-15T11:18:07;11.10;99.90
3842;DHT22;1936;47.074;15.336;2022-11-15T11:20:18;11.00;99.90
3842;DHT22;1936;47.074;15.336;2022-11-15T11:22:30;11.50;99.90
3842;DHT22;1936;47.074;15.336;2022-11-15T11:24:41;11.80;99.90
3842;DHT22;1936;47.074;15.336;2022-11-15T11:26:58;12.00;99.90
3842;DHT22;1936;47.074;15.336;2022-11-15T11:29:19;11.90;99.90
3842;DHT22;1936;47.074;15.336;2022-11-15T11:31:29;11.80;99.90
3842;DHT22;1936;47.074;15.336;2022-11-15T11:33:42;11.90;99.90
3842;DHT22;1936;47.074;15.336;2022-11-15T11:35:59;11.30;99.90
3842;DHT22;1936;47.074;15.336;2022-11-15T11:38:17;11.50;99.90
3842;DHT22;1936;47.074;15.336;2022-11-15T11:40:30;11.50;99.90
3842;DHT22;1936;47.074;15.336;2022-11-15T11:42:40;11.70;99.90
3842;DHT22;1936;47.074;15.336;2022-11-15T11:44:51;11.60;99.90
3842;DHT22;1936;47.074;15.336;2022-11-15T11:47:00;11.70;99.90
3842;DHT22;1936;47.074;15.336;2022-11-15T11:49:09;11.30;99.90
3842;DHT22;1936;47.074;15.336;2022-11-15T11:51:17;11.50;99.90
3842;DHT22;1936;47.074;15.336;2022-11-15T11:53:27;11.60;99.90
3842;DHT22;1936;47.074;15.336;2022-11-15T11:55:38;11.60;99.90
3842;DHT22;1936;47.074;15.336;2022-11-15T11:57:46;11.50;99.90
3842;DHT22;1936;47.074;15.336;2022-11-15T11:59:58;11.30;99.90
3842;DHT22;1936;47.074;15.336;2022-11-15T12:02:12;11.50;99.90
3842;DHT22;1936;47.074;15.336;2022-11-15T12:04:20;11.80;99.90
3842;DHT22;1936;47.074;15.336;2022-11-15T12:06:30;11.70;99.90
3842;DHT22;1936;47.074;15.336;2022-11-15T12:08:40;11.30;99.90
3842;DHT22;1936;47.074;15.336;2022-11-15T12:10:52;11.10;99.90
3842;DHT22;1936;47.074;15.336;2022-11-15T12:13:00;11.10;99.90
3842;DHT22;1936;47.074;15.336;2022-11-15T12:15:12;11.10;99.90
3842;DHT22;1936;47.074;15.336;2022-11-15T12:17:21;10.90;99.90
3842;DHT22;1936;47.074;15.336;2022-11-15T12:19:26;10.80;99.90
3842;DHT22;1936;47.074;15.336;2022-11-15T12:21:36;10.90;99.90
3842;DHT22;1936;47.074;15.336;2022-11-15T12:23:45;10.70;99.90
3842;DHT22;1936;47.074;15.336;2022-11-15T12:25:54;10.60;99.90
3842;DHT22;1936;47.074;15.336;2022-11-15T12:28:03;10.60;99.90
3842;DHT22;1936;47.074;15.336;2022-11-15T12:30:12;10.50;99.90
3842;DHT22;1936;47.074;15.336;2022-11-15T12:32:24;10.40;99.90
3842;DHT22;1936;47.074;15.336;2022-11-15T12:34:42;10.30;99.90
3842;DHT22;1936;47.074;15.336;2022-11-15T12:36:47;10.20;99.90
3842;DHT22;1936;47.074;15.336;2022-11-15T12:38:56;10.00;99.90
3842;DHT22;1936;47.074;15.336;2022-11-15T12:41:15;10.10;99.90
3842;DHT22;1936;47.074;15.336;2022-11-15T12:43:38;10.00;99.90
3842;DHT22;1936;47.074;15.336;2022-11-15T12:45:43;10.00;99.90
3842;DHT22;1936;47.074;15.336;2022-11-15T12:47:46;10.00;99.90
3842;DHT22;1936;47.074;15.336;2022-11-15T12:49:50;10.10;99.90
3842;DHT22;1936;47.074;15.336;2022-11-15T12:52:09;10.00;99.90
3842;DHT22;1936;47.074;15.336;2022-11-15T12:57:22;9.80;99.90
3842;DHT22;1936;47.074;15.336;2022-11-15T12:59:49;9.80;99.90
3842;DHT22;1936;47.074;15.336;2022-11-15T13:02:00;9.50;99.90
3842;DHT22;1936;47.074;15.336;2022-11-15T13:04:21;9.40;99.90
3842;DHT22;1936;47.074;15.336;2022-11-15T13:06:38;9.40;99.90
3842;DHT22;1936;47.074;15.336;2022-11-15T13:08:48;9.30;99.90
3842;DHT22;1936;47.074;15.336;2022-11-15T13:10:52;9.20;99.90
3842;DHT22;1936;47.074;15.336;2022-11-15T13:12:58;9.10;99.90
3842;DHT22;1936;47.074;15.336;2022-11-15T13:15:35;9.00;99.90
3842;DHT22;1936;47.074;15.336;2022-11-15T13:17:44;9.10;99.90
3842;DHT22;1936;47.074;15.336;2022-11-15T13:19:58;9.10;99.90
3842;DHT22;1936;47.074;15.336;2022-11-15T13:22:04;9.10;99.90
3842;DHT22;1936;47.074;15.336;2022-11-15T13:24:38;9.10;99.90
3842;DHT22;1936;47.074;15.336;2022-11-15T13:26:42;9.10;99.90
3842;DHT22;1936;47.074;15.336;2022-11-15T13:28:49;8.90;99.90
3842;DHT22;1936;47.074;15.336;2022-11-15T13:30:56;8.80;99.90
3842;DHT22;1936;47.074;15.336;2022-11-15T13:33:08;8.70;99.90
3842;DHT22;1936;47.074;15.336;2022-11-15T13:35:19;8.70;99.90
3842;DHT22;1936;47.074;15.336;2022-11-15T13:37:29;8.70;99.90
3842;DHT22;1936;47.074;15.336;2022-11-15T13:39:34;8.70;99.90
3842;DHT22;1936;47.074;15.336;2022-11-15T13:41:46;8.70;99.90
3842;DHT22;1936;47.074;15.336;2022-11-15T13:43:53;8.60;99.90
3842;DHT22;1936;47.074;15.336;2022-11-15T13:46:07;8.70;99.90
3842;DHT22;1936;47.074;15.336;2022-11-15T13:48:10;8.70;99.90
3842;DHT22;1936;47.074;15.336;2022-11-15T13:50:14;8.60;99.90
3842;DHT22;1936;47.074;15.336;2022-11-15T13:52:17;8.60;99.90
3842;DHT22;1936;47.074;15.336;2022-11-15T13:54:26;8.70;99.90
3842;DHT22;1936;47.074;15.336;2022-11-15T13:56:32;8.70;99.90
3842;DHT22;1936;47.074;15.336;2022-11-15T13:58:37;8.60;99.90
3842;DHT22;1936;47.074;15.336;2022-11-15T14:00:44;8.60;99.90